sensor_id;sensor_type;location;lat;lon;timestamp;noise_LAeq;noise_LA_min;noise_LA_max;noise_LA01;noise_LA95
67324;Laerm;57667;51.438;5.968;2023-05-27T00:00:04;31.86;29.92;34.97;;
67324;Laerm;57667;51.438;5.968;2023-05-27T00:00:14;36.27;30.16;46.53;;
67324;Laerm;57667;51.438;5.968;2023-05-27T00:00:25;32.52;30.12;36.11;;
67324;Laerm;57667;51.438;5.968;2023-05-27T00:00:35;31.88;30.03;34.99;;
67324;Laerm;57667;51.438;5.968;2023-05-27T00:00:45;31.39;30.05;33.73;;
67324;Laerm;57667;51.438;5.968;2023-05-27T00:00:56;31.40;29.75;32.92;;
67324;Laerm;57667;51.438;5.968;2023-05-27T00:01:06;31.28;29.77;33.13;;
67324;Laerm;57667;51.438;5.968;2023-05-27T00:01:17;31.13;29.47;33.86;;
67324;Laerm;57667;51.438;5.968;2023-05-27T00:01:27;30.78;29.45;33.24;;
67324;Laerm;57667;51.438;5.968;2023-05-27T00:01:38;31.08;29.63;33.00;;
67324;Laerm;57667;51.438;5.968;2023-05-27T00:01:48;31.92;30.19;34.36;;
67324;Laerm;57667;51.438;5.968;2023-05-27T00:01:58;31.75;30.42;36.10;;
67324;Laerm;57667;51.438;5.968;2023-05-27T00:02:09;32.29;30.22;43.87;;
67324;Laerm;57667;51.438;5.968;2023-05-27T00:02:19;31.83;30.41;33.76;;
67324;Laerm;57667;51.438;5.968;2023-05-27T00:02:29;31.46;29.58;34.27;;
67324;Laerm;57667;51.438;5.968;2023-05-27T00:02:40;31.62;29.83;35.06;;
67324;Laerm;57667;51.438;5.968;2023-05-27T00:02:50;31.53;29.76;35.92;;
67324;Laerm;57667;51.438;5.968;2023-05-27T00:03:00;31.37;29.62;36.12;;
67324;Laerm;57667;51.438;5.968;2023-05-27T00:03:11;31.68;29.98;33.37;;
67324;Laerm;57667;51.438;5.968;2023-05-27T00:03:21;32.37;30.46;34.57;;
67324;Laerm;57667;51.438;5.968;2023-05-27T00:03:32;31.94;30.71;33.23;;
67324;Laerm;57667;51.438;5.968;2023-05-27T00:03:42;31.47;29.94;33.03;;
67324;Laerm;57667;51.438;5.968;2023-05-27T00:03:53;31.25;30.08;33.16;;
67324;Laerm;57667;51.438;5.968;2023-05-27T00:04:03;31.24;30.03;34.61;;
67324;Laerm;57667;51.438;5.968;2023-05-27T00:04:13;31.65;30.02;35.54;;
67324;Laerm;57667;51.438;5.968;2023-05-27T00:04:24;31.65;29.62;36.90;;
67324;Laerm;57667;51.438;5.968;2023-05-27T00:04:34;31.64;30.01;34.63;;
67324;Laerm;57667;51.438;5.968;2023-05-27T00:04:44;31.30;29.90;32.54;;
67324;Laerm;57667;51.438;5.968;2023-05-27T00:04:55;31.91;30.61;33.53;;
67324;Laerm;57667;51.438;5.968;2023-05-27T00:05:05;31.68;29.97;34.73;;
67324;Laerm;57667;51.438;5.968;2023-05-27T00:05:16;31.22;29.53;34.17;;
67324;Laerm;57667;51.438;5.968;2023-05-27T00:05:26;31.15;29.61;33.83;;
67324;Laerm;57667;51.438;5.968;2023-05-27T00:05:37;31.55;29.87;36.54;;
67324;Laerm;57667;51.438;5.968;2023-05-27T00:05:47;31.69;30.08;34.93;;
67324;Laerm;57667;51.438;5.968;2023-05-27T00:05:57;31.88;30.48;35.11;;
67324;Laerm;57667;51.438;5.968;2023-05-27T00:06:08;31.68;30.19;33.86;;
67324;Laerm;57667;51.438;5.968;2023-05-27T00:06:18;31.27;29.90;32.92;;
67324;Laerm;57667;51.438;5.968;2023-05-27T00:06:28;31.84;30.42;33.28;;
67324;Laerm;57667;51.438;5.968;2023-05-27T00:06:39;31.65;30.06;33.99;;
67324;Laerm;57667;51.438;5.968;2023-05-27T00:06:49;31.42;29.66;33.33;;
67324;Laerm;57667;51.438;5.968;2023-05-27T00:07:00;32.04;30.22;35.00;;
67324;Laerm;57667;51.438;5.968;2023-05-27T00:07:10;32.18;30.96;34.62;;
67324;Laerm;57667;51.438;5.968;2023-05-27T00:07:20;32.00;30.41;34.31;;
67324;Laerm;57667;51.438;5.968;2023-05-27T00:07:31;31.95;30.31;34.44;;
67324;Laerm;57667;51.438;5.968;2023-05-27T00:07:41;33.59;31.58;35.41;;
67324;Laerm;57667;51.438;5.968;2023-05-27T00:07:51;32.36;30.62;34.38;;
67324;Laerm;57667;51.438;5.968;2023-05-27T00:08:02;31.96;30.29;35.93;;
67324;Laerm;57667;51.438;5.968;2023-05-27T00:08:12;31.73;30.16;34.20;;
67324;Laerm;57667;51.438;5.968;2023-05-27T00:08:23;32.27;30.37;34.47;;
67324;Laerm;57667;51.438;5.968;2023-05-27T00:08:33;32.41;30.33;37.79;;
67324;Laerm;57667;51.438;5.968;2023-05-27T00:08:43;32.28;30.50;37.12;;
67324;Laerm;57667;51.438;5.968;2023-05-27T00:08:54;31.82;30.29;34.49;;
67324;Laerm;57667;51.438;5.968;2023-05-27T00:09:04;31.67;30.04;42.35;;
67324;Laerm;57667;51.438;5.968;2023-05-27T00:09:15;31.84;30.18;34.83;;
67324;Laerm;57667;51.438;5.968;2023-05-27T00:09:25;32.52;30.44;38.45;;
67324;Laerm;57667;51.438;5.968;2023-05-27T00:09:37;31.35;29.89;35.71;;
67324;Laerm;57667;51.438;5.968;2023-05-27T00:09:47;31.81;30.10;34.87;;
67324;Laerm;57667;51.438;5.968;2023-05-27T00:09:57;31.73;30.27;33.37;;
67324;Laerm;57667;51.438;5.968;2023-05-27T00:10:08;32.30;30.53;34.32;;
67324;Laerm;57667;51.438;5.968;2023-05-27T00:10:18;33.45;31.69;35.38;;
67324;Laerm;57667;51.438;5.968;2023-05-27T00:10:28;32.83;31.37;34.92;;
67324;Laerm;57667;51.438;5.968;2023-05-27T00:10:39;31.88;30.21;33.71;;
67324;Laerm;57667;51.438;5.968;2023-05-27T00:10:49;31.73;30.04;33.79;;
67324;Laerm;57667;51.438;5.968;2023-05-27T00:10:59;31.06;29.83;33.14;;
67324;Laerm;57667;51.438;5.968;2023-05-27T00:11:10;31.75;30.33;34.12;;
67324;Laerm;57667;51.438;5.968;2023-05-27T00:11:20;31.85;30.45;33.25;;
67324;Laerm;57667;51.438;5.968;2023-05-27T00:11:31;31.80;30.38;34.18;;
67324;Laerm;57667;51.438;5.968;2023-05-27T00:11:42;31.94;30.31;35.51;;
67324;Laerm;57667;51.438;5.968;2023-05-27T00:11:52;31.48;29.70;33.65;;
67324;Laerm;57667;51.438;5.968;2023-05-27T00:12:02;31.23;29.59;35.85;;
67324;Laerm;57667;51.438;5.968;2023-05-27T00:12:13;32.07;30.90;35.46;;
67324;Laerm;57667;51.438;5.968;2023-05-27T00:12:23;32.36;30.99;34.38;;
67324;Laerm;57667;51.438;5.968;2023-05-27T00:12:33;31.76;30.08;33.67;;
67324;Laerm;57667;51.438;5.968;2023-05-27T00:12:44;32.27;30.68;34.30;;
67324;Laerm;57667;51.438;5.968;2023-05-27T00:12:54;32.31;30.52;35.39;;
67324;Laerm;57667;51.438;5.968;2023-05-27T00:13:04;32.44;30.13;41.23;;
67324;Laerm;57667;51.438;5.968;2023-05-27T00:13:15;31.74;29.55;34.05;;
67324;Laerm;57667;51.438;5.968;2023-05-27T00:13:25;31.58;29.84;33.85;;
67324;Laerm;57667;51.438;5.968;2023-05-27T00:13:36;31.35;29.98;36.24;;
67324;Laerm;57667;51.438;5.968;2023-05-27T00:13:46;32.00;30.35;34.65;;
67324;Laerm;57667;51.438;5.968;2023-05-27T00:13:56;32.17;30.01;35.64;;
67324;Laerm;57667;51.438;5.968;2023-05-27T00:14:07;32.81;30.94;37.28;;
67324;Laerm;57667;51.438;5.968;2023-05-27T00:14:17;33.52;30.59;43.60;;
67324;Laerm;57667;51.438;5.968;2023-05-27T00:14:28;32.71;30.55;42.12;;
67324;Laerm;57667;51.438;5.968;2023-05-27T00:14:38;32.72;30.39;37.08;;
67324;Laerm;57667;51.438;5.968;2023-05-27T00:14:48;32.41;31.05;34.90;;
67324;Laerm;57667;51.438;5.968;2023-05-27T00:14:58;32.51;30.82;34.16;;
67324;Laerm;57667;51.438;5.968;2023-05-27T00:15:09;31.70;30.15;34.04;;
67324;Laerm;57667;51.438;5.968;2023-05-27T00:15:19;31.70;29.83;35.96;;
67324;Laerm;57667;51.438;5.968;2023-05-27T00:15:30;32.06;30.45;33.60;;
67324;Laerm;57667;51.438;5.968;2023-05-27T00:15:40;31.71;29.78;33.97;;
67324;Laerm;57667;51.438;5.968;2023-05-27T00:15:51;32.43;30.56;35.49;;
67324;Laerm;57667;51.438;5.968;2023-05-27T00:16:01;32.42;30.47;34.57;;
67324;Laerm;57667;51.438;5.968;2023-05-27T00:16:12;32.47;30.53;34.67;;
67324;Laerm;57667;51.438;5.968;2023-05-27T00:16:22;33.12;30.98;35.93;;
67324;Laerm;57667;51.438;5.968;2023-05-27T00:16:33;33.35;31.05;37.79;;
67324;Laerm;57667;51.438;5.968;2023-05-27T00:16:46;37.31;31.89;47.61;;
67324;Laerm;57667;51.438;5.968;2023-05-27T00:16:56;34.74;32.35;37.56;;
67324;Laerm;57667;51.438;5.968;2023-05-27T00:17:07;35.22;31.48;40.04;;
67324;Laerm;57667;51.438;5.968;2023-05-27T00:17:19;32.61;30.45;35.16;;
67324;Laerm;57667;51.438;5.968;2023-05-27T00:17:29;32.90;31.31;34.67;;
67324;Laerm;57667;51.438;5.968;2023-05-27T00:17:40;33.16;31.20;36.21;;
67324;Laerm;57667;51.438;5.968;2023-05-27T00:17:52;32.07;30.00;34.50;;
67324;Laerm;57667;51.438;5.968;2023-05-27T00:18:02;32.23;30.01;35.25;;
67324;Laerm;57667;51.438;5.968;2023-05-27T00:18:13;33.40;31.66;35.80;;
67324;Laerm;57667;51.438;5.968;2023-05-27T00:18:23;34.06;31.73;37.08;;
67324;Laerm;57667;51.438;5.968;2023-05-27T00:18:33;32.45;30.95;34.00;;
67324;Laerm;57667;51.438;5.968;2023-05-27T00:18:46;32.01;30.49;36.48;;
67324;Laerm;57667;51.438;5.968;2023-05-27T00:18:57;31.77;30.40;33.70;;
67324;Laerm;57667;51.438;5.968;2023-05-27T00:19:08;32.03;30.67;36.24;;
67324;Laerm;57667;51.438;5.968;2023-05-27T00:19:18;32.72;30.82;34.88;;
67324;Laerm;57667;51.438;5.968;2023-05-27T00:19:29;33.37;31.00;36.18;;
67324;Laerm;57667;51.438;5.968;2023-05-27T00:19:41;33.46;31.30;35.68;;
67324;Laerm;57667;51.438;5.968;2023-05-27T00:19:52;32.37;30.54;34.02;;
67324;Laerm;57667;51.438;5.968;2023-05-27T00:20:04;33.09;31.11;35.22;;
67324;Laerm;57667;51.438;5.968;2023-05-27T00:20:18;38.01;31.44;45.27;;
67324;Laerm;57667;51.438;5.968;2023-05-27T00:20:29;45.26;39.76;50.24;;
67324;Laerm;57667;51.438;5.968;2023-05-27T00:20:40;47.19;36.59;52.07;;
67324;Laerm;57667;51.438;5.968;2023-05-27T00:20:51;34.50;31.99;37.68;;
67324;Laerm;57667;51.438;5.968;2023-05-27T00:21:01;32.88;31.67;34.62;;
67324;Laerm;57667;51.438;5.968;2023-05-27T00:21:12;32.51;30.98;34.01;;
67324;Laerm;57667;51.438;5.968;2023-05-27T00:21:23;31.97;30.21;33.85;;
67324;Laerm;57667;51.438;5.968;2023-05-27T00:21:33;31.21;30.09;33.22;;
67324;Laerm;57667;51.438;5.968;2023-05-27T00:21:43;31.15;29.99;39.08;;
67324;Laerm;57667;51.438;5.968;2023-05-27T00:21:54;31.13;29.58;32.82;;
67324;Laerm;57667;51.438;5.968;2023-05-27T00:22:05;31.28;29.50;38.86;;
67324;Laerm;57667;51.438;5.968;2023-05-27T00:22:16;31.21;29.85;32.45;;
67324;Laerm;57667;51.438;5.968;2023-05-27T00:22:26;32.28;30.60;33.45;;
67324;Laerm;57667;51.438;5.968;2023-05-27T00:22:38;32.69;31.03;34.74;;
67324;Laerm;57667;51.438;5.968;2023-05-27T00:22:49;31.91;30.70;33.44;;
67324;Laerm;57667;51.438;5.968;2023-05-27T00:23:00;32.06;30.49;38.48;;
67324;Laerm;57667;51.438;5.968;2023-05-27T00:23:10;31.60;30.06;33.35;;
67324;Laerm;57667;51.438;5.968;2023-05-27T00:23:21;32.00;30.13;40.22;;
67324;Laerm;57667;51.438;5.968;2023-05-27T00:23:31;32.32;30.44;34.29;;
67324;Laerm;57667;51.438;5.968;2023-05-27T00:23:45;32.14;30.14;37.19;;
67324;Laerm;57667;51.438;5.968;2023-05-27T00:23:56;32.72;30.09;36.15;;
67324;Laerm;57667;51.438;5.968;2023-05-27T00:24:07;31.33;29.77;34.11;;
67324;Laerm;57667;51.438;5.968;2023-05-27T00:24:18;31.24;29.77;32.97;;
67324;Laerm;57667;51.438;5.968;2023-05-27T00:24:29;31.37;30.06;34.45;;
67324;Laerm;57667;51.438;5.968;2023-05-27T00:24:39;31.21;29.77;33.70;;
67324;Laerm;57667;51.438;5.968;2023-05-27T00:24:51;32.09;29.89;36.11;;
67324;Laerm;57667;51.438;5.968;2023-05-27T00:25:02;32.64;30.34;38.01;;
67324;Laerm;57667;51.438;5.968;2023-05-27T00:25:12;35.48;33.02;39.15;;
67324;Laerm;57667;51.438;5.968;2023-05-27T00:25:23;42.32;36.52;47.76;;
67324;Laerm;57667;51.438;5.968;2023-05-27T00:25:33;50.20;41.08;53.87;;
67324;Laerm;57667;51.438;5.968;2023-05-27T00:25:43;37.05;32.74;42.81;;
67324;Laerm;57667;51.438;5.968;2023-05-27T00:25:54;32.59;30.59;35.96;;
67324;Laerm;57667;51.438;5.968;2023-05-27T00:26:04;31.44;30.12;32.70;;
67324;Laerm;57667;51.438;5.968;2023-05-27T00:26:14;31.50;30.27;33.89;;
67324;Laerm;57667;51.438;5.968;2023-05-27T00:26:25;31.07;30.00;33.08;;
67324;Laerm;57667;51.438;5.968;2023-05-27T00:26:36;31.05;29.86;31.87;;
67324;Laerm;57667;51.438;5.968;2023-05-27T00:26:46;31.00;29.85;33.96;;
67324;Laerm;57667;51.438;5.968;2023-05-27T00:26:56;30.73;29.51;32.49;;
67324;Laerm;57667;51.438;5.968;2023-05-27T00:27:07;30.65;29.35;32.41;;
67324;Laerm;57667;51.438;5.968;2023-05-27T00:27:17;30.82;29.43;33.74;;
67324;Laerm;57667;51.438;5.968;2023-05-27T00:27:28;31.12;29.63;33.76;;
67324;Laerm;57667;51.438;5.968;2023-05-27T00:27:38;30.73;29.49;31.96;;
67324;Laerm;57667;51.438;5.968;2023-05-27T00:27:48;31.32;29.97;32.79;;
67324;Laerm;57667;51.438;5.968;2023-05-27T00:27:59;30.86;29.27;32.94;;
67324;Laerm;57667;51.438;5.968;2023-05-27T00:28:09;30.97;29.80;32.76;;
67324;Laerm;57667;51.438;5.968;2023-05-27T00:28:20;31.03;29.60;33.24;;
67324;Laerm;57667;51.438;5.968;2023-05-27T00:28:30;31.09;30.00;34.51;;
67324;Laerm;57667;51.438;5.968;2023-05-27T00:28:41;31.15;29.70;33.70;;
67324;Laerm;57667;51.438;5.968;2023-05-27T00:28:52;30.89;29.63;32.22;;
67324;Laerm;57667;51.438;5.968;2023-05-27T00:29:02;30.93;29.71;32.38;;
67324;Laerm;57667;51.438;5.968;2023-05-27T00:29:13;30.77;29.46;33.37;;
67324;Laerm;57667;51.438;5.968;2023-05-27T00:29:23;31.05;29.86;35.22;;
67324;Laerm;57667;51.438;5.968;2023-05-27T00:29:34;31.27;30.11;32.74;;
67324;Laerm;57667;51.438;5.968;2023-05-27T00:29:45;30.97;29.76;32.78;;
67324;Laerm;57667;51.438;5.968;2023-05-27T00:29:56;31.07;29.77;33.26;;
67324;Laerm;57667;51.438;5.968;2023-05-27T00:30:06;31.13;29.90;35.78;;
67324;Laerm;57667;51.438;5.968;2023-05-27T00:30:17;30.56;29.43;31.90;;
67324;Laerm;57667;51.438;5.968;2023-05-27T00:30:27;30.65;29.43;35.51;;
67324;Laerm;57667;51.438;5.968;2023-05-27T00:30:38;30.69;29.54;32.56;;
67324;Laerm;57667;51.438;5.968;2023-05-27T00:30:48;31.86;30.20;33.41;;
67324;Laerm;57667;51.438;5.968;2023-05-27T00:30:58;31.15;29.56;33.89;;
67324;Laerm;57667;51.438;5.968;2023-05-27T00:31:09;32.61;29.56;42.72;;
67324;Laerm;57667;51.438;5.968;2023-05-27T00:31:19;31.78;30.14;33.28;;
67324;Laerm;57667;51.438;5.968;2023-05-27T00:31:30;31.95;30.39;34.20;;
67324;Laerm;57667;51.438;5.968;2023-05-27T00:31:40;31.09;29.56;33.09;;
67324;Laerm;57667;51.438;5.968;2023-05-27T00:31:50;31.07;29.61;34.07;;
67324;Laerm;57667;51.438;5.968;2023-05-27T00:32:01;31.16;29.60;34.76;;
67324;Laerm;57667;51.438;5.968;2023-05-27T00:32:12;31.04;29.49;34.85;;
67324;Laerm;57667;51.438;5.968;2023-05-27T00:32:23;31.18;29.79;34.20;;
67324;Laerm;57667;51.438;5.968;2023-05-27T00:32:33;32.25;30.64;36.09;;
67324;Laerm;57667;51.438;5.968;2023-05-27T00:32:43;33.67;32.21;35.08;;
67324;Laerm;57667;51.438;5.968;2023-05-27T00:32:54;34.35;32.59;37.30;;
67324;Laerm;57667;51.438;5.968;2023-05-27T00:33:05;47.28;34.60;52.98;;
67324;Laerm;57667;51.438;5.968;2023-05-27T00:33:15;45.64;39.17;52.86;;
67324;Laerm;57667;51.438;5.968;2023-05-27T00:33:25;40.38;33.95;45.33;;
67324;Laerm;57667;51.438;5.968;2023-05-27T00:33:36;33.79;30.85;37.15;;
67324;Laerm;57667;51.438;5.968;2023-05-27T00:33:46;33.36;31.68;35.51;;
67324;Laerm;57667;51.438;5.968;2023-05-27T00:33:56;32.35;30.48;34.43;;
67324;Laerm;57667;51.438;5.968;2023-05-27T00:34:07;31.37;30.07;32.96;;
67324;Laerm;57667;51.438;5.968;2023-05-27T00:34:17;32.37;30.49;36.09;;
67324;Laerm;57667;51.438;5.968;2023-05-27T00:34:27;32.16;30.78;33.57;;
67324;Laerm;57667;51.438;5.968;2023-05-27T00:34:38;31.38;29.57;32.89;;
67324;Laerm;57667;51.438;5.968;2023-05-27T00:34:48;31.10;29.73;32.97;;
67324;Laerm;57667;51.438;5.968;2023-05-27T00:34:58;31.05;29.42;33.30;;
67324;Laerm;57667;51.438;5.968;2023-05-27T00:35:09;31.18;29.86;32.97;;
67324;Laerm;57667;51.438;5.968;2023-05-27T00:35:19;31.29;29.90;34.43;;
67324;Laerm;57667;51.438;5.968;2023-05-27T00:35:30;31.52;29.79;34.89;;
67324;Laerm;57667;51.438;5.968;2023-05-27T00:35:40;31.85;30.12;34.79;;
67324;Laerm;57667;51.438;5.968;2023-05-27T00:35:50;31.81;30.17;36.19;;
67324;Laerm;57667;51.438;5.968;2023-05-27T00:36:01;32.13;30.48;36.00;;
67324;Laerm;57667;51.438;5.968;2023-05-27T00:36:11;31.93;29.73;34.24;;
67324;Laerm;57667;51.438;5.968;2023-05-27T00:36:21;31.37;29.62;34.24;;
67324;Laerm;57667;51.438;5.968;2023-05-27T00:36:32;31.38;29.64;33.46;;
67324;Laerm;57667;51.438;5.968;2023-05-27T00:36:42;31.53;29.99;33.86;;
67324;Laerm;57667;51.438;5.968;2023-05-27T00:36:52;31.04;29.09;33.00;;
67324;Laerm;57667;51.438;5.968;2023-05-27T00:37:04;31.69;29.78;34.70;;
67324;Laerm;57667;51.438;5.968;2023-05-27T00:37:14;31.46;29.90;34.31;;
67324;Laerm;57667;51.438;5.968;2023-05-27T00:37:24;31.25;29.82;33.21;;
67324;Laerm;57667;51.438;5.968;2023-05-27T00:37:35;31.44;29.83;35.71;;
67324;Laerm;57667;51.438;5.968;2023-05-27T00:37:45;31.73;29.86;34.22;;
67324;Laerm;57667;51.438;5.968;2023-05-27T00:37:55;31.38;29.77;34.27;;
67324;Laerm;57667;51.438;5.968;2023-05-27T00:38:06;31.24;29.81;32.90;;
67324;Laerm;57667;51.438;5.968;2023-05-27T00:38:16;31.39;29.53;34.62;;
67324;Laerm;57667;51.438;5.968;2023-05-27T00:38:26;31.14;29.85;37.26;;
67324;Laerm;57667;51.438;5.968;2023-05-27T00:38:36;30.94;29.69;32.90;;
67324;Laerm;57667;51.438;5.968;2023-05-27T00:38:47;31.53;29.91;33.35;;
67324;Laerm;57667;51.438;5.968;2023-05-27T00:38:57;32.99;30.11;39.40;;
67324;Laerm;57667;51.438;5.968;2023-05-27T00:39:08;32.04;30.53;34.40;;
67324;Laerm;57667;51.438;5.968;2023-05-27T00:39:18;32.24;30.01;37.37;;
67324;Laerm;57667;51.438;5.968;2023-05-27T00:39:28;31.39;30.17;34.76;;
67324;Laerm;57667;51.438;5.968;2023-05-27T00:39:39;31.62;30.14;34.67;;
67324;Laerm;57667;51.438;5.968;2023-05-27T00:39:49;31.63;29.96;35.80;;
67324;Laerm;57667;51.438;5.968;2023-05-27T00:40:00;32.65;30.96;35.78;;
67324;Laerm;57667;51.438;5.968;2023-05-27T00:40:11;34.04;31.61;44.02;;
67324;Laerm;57667;51.438;5.968;2023-05-27T00:40:22;32.10;30.59;35.02;;
67324;Laerm;57667;51.438;5.968;2023-05-27T00:40:32;31.75;29.97;33.90;;
67324;Laerm;57667;51.438;5.968;2023-05-27T00:40:45;31.92;30.44;34.42;;
67324;Laerm;57667;51.438;5.968;2023-05-27T00:40:55;32.20;30.33;36.48;;
67324;Laerm;57667;51.438;5.968;2023-05-27T00:41:06;32.22;30.23;38.91;;
67324;Laerm;57667;51.438;5.968;2023-05-27T00:41:17;31.74;30.14;33.18;;
67324;Laerm;57667;51.438;5.968;2023-05-27T00:41:27;32.15;30.64;34.16;;
67324;Laerm;57667;51.438;5.968;2023-05-27T00:41:38;31.85;30.60;33.69;;
67324;Laerm;57667;51.438;5.968;2023-05-27T00:41:48;31.91;30.32;33.97;;
67324;Laerm;57667;51.438;5.968;2023-05-27T00:41:59;31.50;30.19;33.99;;
67324;Laerm;57667;51.438;5.968;2023-05-27T00:42:10;31.38;30.18;32.86;;
67324;Laerm;57667;51.438;5.968;2023-05-27T00:42:21;32.17;30.17;38.72;;
67324;Laerm;57667;51.438;5.968;2023-05-27T00:42:31;31.85;30.76;33.26;;
67324;Laerm;57667;51.438;5.968;2023-05-27T00:42:42;31.56;30.31;33.36;;
67324;Laerm;57667;51.438;5.968;2023-05-27T00:42:52;31.87;30.40;33.30;;
67324;Laerm;57667;51.438;5.968;2023-05-27T00:43:02;33.36;31.85;37.66;;
67324;Laerm;57667;51.438;5.968;2023-05-27T00:43:12;33.33;31.45;35.28;;
67324;Laerm;57667;51.438;5.968;2023-05-27T00:43:23;34.18;31.88;36.29;;
67324;Laerm;57667;51.438;5.968;2023-05-27T00:43:33;33.61;31.25;36.20;;
67324;Laerm;57667;51.438;5.968;2023-05-27T00:43:43;32.63;30.90;35.15;;
67324;Laerm;57667;51.438;5.968;2023-05-27T00:43:55;32.56;30.66;34.70;;
67324;Laerm;57667;51.438;5.968;2023-05-27T00:44:06;31.93;30.31;33.58;;
67324;Laerm;57667;51.438;5.968;2023-05-27T00:44:16;31.46;29.77;33.61;;
67324;Laerm;57667;51.438;5.968;2023-05-27T00:44:27;31.89;30.24;34.17;;
67324;Laerm;57667;51.438;5.968;2023-05-27T00:44:37;32.24;30.22;35.04;;
67324;Laerm;57667;51.438;5.968;2023-05-27T00:44:48;32.68;30.92;35.83;;
67324;Laerm;57667;51.438;5.968;2023-05-27T00:44:58;32.58;30.25;40.12;;
67324;Laerm;57667;51.438;5.968;2023-05-27T00:45:09;31.93;30.29;34.29;;
67324;Laerm;57667;51.438;5.968;2023-05-27T00:45:20;31.62;30.03;33.67;;
67324;Laerm;57667;51.438;5.968;2023-05-27T00:45:30;31.91;30.16;33.33;;
67324;Laerm;57667;51.438;5.968;2023-05-27T00:45:41;31.79;30.50;33.38;;
67324;Laerm;57667;51.438;5.968;2023-05-27T00:45:51;32.02;30.45;33.74;;
67324;Laerm;57667;51.438;5.968;2023-05-27T00:46:01;31.91;30.56;33.71;;
67324;Laerm;57667;51.438;5.968;2023-05-27T00:46:12;31.15;29.96;33.64;;
67324;Laerm;57667;51.438;5.968;2023-05-27T00:46:22;30.98;29.86;32.58;;
67324;Laerm;57667;51.438;5.968;2023-05-27T00:46:33;31.09;29.79;36.08;;
67324;Laerm;57667;51.438;5.968;2023-05-27T00:46:44;31.16;29.61;36.24;;
67324;Laerm;57667;51.438;5.968;2023-05-27T00:46:54;31.10;29.15;35.91;;
67324;Laerm;57667;51.438;5.968;2023-05-27T00:47:05;31.76;30.07;38.22;;
67324;Laerm;57667;51.438;5.968;2023-05-27T00:47:15;31.26;29.63;33.24;;
67324;Laerm;57667;51.438;5.968;2023-05-27T00:47:26;31.20;29.85;33.30;;
67324;Laerm;57667;51.438;5.968;2023-05-27T00:47:39;31.63;29.97;33.40;;
67324;Laerm;57667;51.438;5.968;2023-05-27T00:47:50;31.54;30.39;32.87;;
67324;Laerm;57667;51.438;5.968;2023-05-27T00:48:01;31.87;30.21;42.28;;
67324;Laerm;57667;51.438;5.968;2023-05-27T00:48:12;31.13;29.68;38.34;;
67324;Laerm;57667;51.438;5.968;2023-05-27T00:48:22;30.84;29.56;32.02;;
67324;Laerm;57667;51.438;5.968;2023-05-27T00:48:33;31.31;29.96;33.80;;
67324;Laerm;57667;51.438;5.968;2023-05-27T00:48:43;30.74;29.35;32.77;;
67324;Laerm;57667;51.438;5.968;2023-05-27T00:48:54;31.11;29.93;32.21;;
67324;Laerm;57667;51.438;5.968;2023-05-27T00:49:04;30.83;29.73;33.16;;
67324;Laerm;57667;51.438;5.968;2023-05-27T00:49:16;31.02;29.69;32.95;;
67324;Laerm;57667;51.438;5.968;2023-05-27T00:49:26;31.37;29.89;32.73;;
67324;Laerm;57667;51.438;5.968;2023-05-27T00:49:37;31.89;30.23;33.64;;
67324;Laerm;57667;51.438;5.968;2023-05-27T00:49:47;31.60;30.34;32.91;;
67324;Laerm;57667;51.438;5.968;2023-05-27T00:49:58;31.46;30.29;32.58;;
67324;Laerm;57667;51.438;5.968;2023-05-27T00:50:09;31.23;29.95;32.71;;
67324;Laerm;57667;51.438;5.968;2023-05-27T00:50:19;31.01;29.79;32.46;;
67324;Laerm;57667;51.438;5.968;2023-05-27T00:50:31;30.97;29.75;32.93;;
67324;Laerm;57667;51.438;5.968;2023-05-27T00:50:42;31.50;30.00;33.46;;
67324;Laerm;57667;51.438;5.968;2023-05-27T00:50:52;32.00;30.34;34.78;;
67324;Laerm;57667;51.438;5.968;2023-05-27T00:51:03;31.42;30.18;32.79;;
67324;Laerm;57667;51.438;5.968;2023-05-27T00:51:13;31.78;30.07;34.86;;
67324;Laerm;57667;51.438;5.968;2023-05-27T00:51:24;31.71;30.21;37.00;;
67324;Laerm;57667;51.438;5.968;2023-05-27T00:51:34;31.42;29.98;34.42;;
67324;Laerm;57667;51.438;5.968;2023-05-27T00:51:45;31.66;30.17;37.40;;
67324;Laerm;57667;51.438;5.968;2023-05-27T00:51:55;31.10;29.79;33.80;;
67324;Laerm;57667;51.438;5.968;2023-05-27T00:52:06;30.64;29.24;32.50;;
67324;Laerm;57667;51.438;5.968;2023-05-27T00:52:16;30.61;29.38;32.47;;
67324;Laerm;57667;51.438;5.968;2023-05-27T00:52:27;30.78;29.56;32.23;;
67324;Laerm;57667;51.438;5.968;2023-05-27T00:52:37;31.49;30.19;33.05;;
67324;Laerm;57667;51.438;5.968;2023-05-27T00:52:47;31.31;29.29;35.41;;
67324;Laerm;57667;51.438;5.968;2023-05-27T00:52:58;30.61;29.35;31.79;;
67324;Laerm;57667;51.438;5.968;2023-05-27T00:53:09;30.89;29.60;31.99;;
67324;Laerm;57667;51.438;5.968;2023-05-27T00:53:19;31.21;29.78;32.47;;
67324;Laerm;57667;51.438;5.968;2023-05-27T00:53:31;31.07;29.77;33.12;;
67324;Laerm;57667;51.438;5.968;2023-05-27T00:53:45;30.70;29.55;32.47;;
67324;Laerm;57667;51.438;5.968;2023-05-27T00:53:56;30.69;29.35;32.35;;
67324;Laerm;57667;51.438;5.968;2023-05-27T00:54:09;30.34;29.07;31.75;;
67324;Laerm;57667;51.438;5.968;2023-05-27T00:54:20;31.01;29.51;36.67;;
67324;Laerm;57667;51.438;5.968;2023-05-27T00:54:31;30.80;29.56;32.24;;
67324;Laerm;57667;51.438;5.968;2023-05-27T00:54:41;30.74;29.31;32.82;;
67324;Laerm;57667;51.438;5.968;2023-05-27T00:54:52;30.80;29.30;36.45;;
67324;Laerm;57667;51.438;5.968;2023-05-27T00:55:03;30.74;29.50;32.87;;
67324;Laerm;57667;51.438;5.968;2023-05-27T00:55:14;30.79;29.65;32.31;;
67324;Laerm;57667;51.438;5.968;2023-05-27T00:55:24;31.06;29.30;38.64;;
67324;Laerm;57667;51.438;5.968;2023-05-27T00:55:35;30.83;29.57;32.49;;
67324;Laerm;57667;51.438;5.968;2023-05-27T00:55:45;30.90;29.34;32.88;;
67324;Laerm;57667;51.438;5.968;2023-05-27T00:55:56;32.56;31.11;33.79;;
67324;Laerm;57667;51.438;5.968;2023-05-27T00:56:11;32.49;31.23;34.04;;
67324;Laerm;57667;51.438;5.968;2023-05-27T00:56:21;32.06;30.48;37.31;;
67324;Laerm;57667;51.438;5.968;2023-05-27T00:56:32;31.25;29.78;32.87;;
67324;Laerm;57667;51.438;5.968;2023-05-27T00:56:42;31.02;29.60;32.90;;
67324;Laerm;57667;51.438;5.968;2023-05-27T00:56:53;31.09;29.67;36.02;;
67324;Laerm;57667;51.438;5.968;2023-05-27T00:57:04;30.89;29.16;32.16;;
67324;Laerm;57667;51.438;5.968;2023-05-27T00:57:16;30.90;29.25;33.45;;
67324;Laerm;57667;51.438;5.968;2023-05-27T00:57:26;30.91;29.38;32.82;;
67324;Laerm;57667;51.438;5.968;2023-05-27T00:57:36;30.87;29.27;37.20;;
67324;Laerm;57667;51.438;5.968;2023-05-27T00:57:47;30.72;29.63;32.03;;
67324;Laerm;57667;51.438;5.968;2023-05-27T00:57:57;30.72;29.73;32.23;;
67324;Laerm;57667;51.438;5.968;2023-05-27T00:58:09;30.85;29.46;33.09;;
67324;Laerm;57667;51.438;5.968;2023-05-27T00:58:20;31.14;29.71;33.29;;
67324;Laerm;57667;51.438;5.968;2023-05-27T00:58:31;30.70;29.44;33.61;;
67324;Laerm;57667;51.438;5.968;2023-05-27T00:58:42;30.82;29.09;36.59;;
67324;Laerm;57667;51.438;5.968;2023-05-27T00:58:52;30.60;29.26;33.08;;
67324;Laerm;57667;51.438;5.968;2023-05-27T00:59:03;30.93;29.61;33.74;;
67324;Laerm;57667;51.438;5.968;2023-05-27T00:59:13;31.29;29.89;34.04;;
67324;Laerm;57667;51.438;5.968;2023-05-27T00:59:23;32.23;30.20;35.39;;